sensor_id;sensor_type;location;lat;lon;timestamp;temperature;humidity
15036;DHT22;7615;48.574;13.474;2023-07-31T00:00:21;17.80;99.90
15036;DHT22;7615;48.574;13.474;2023-07-31T00:02:49;17.90;99.90
15036;DHT22;7615;48.574;13.474;2023-07-31T00:05:16;17.90;99.90
15036;DHT22;7615;48.574;13.474;2023-07-31T00:07:42;17.90;99.90
15036;DHT22;7615;48.574;13.474;2023-07-31T00:10:10;17.90;99.90
15036;DHT22;7615;48.574;13.474;2023-07-31T00:12:38;17.90;99.90
15036;DHT22;7615;48.574;13.474;2023-07-31T00:15:06;17.80;99.90
15036;DHT22;7615;48.574;13.474;2023-07-31T00:17:33;17.80;99.90
15036;DHT22;7615;48.574;13.474;2023-07-31T00:20:01;17.90;99.90
15036;DHT22;7615;48.574;13.474;2023-07-31T00:22:28;17.80;99.90
15036;DHT22;7615;48.574;13.474;2023-07-31T00:24:55;17.80;99.90
15036;DHT22;7615;48.574;13.474;2023-07-31T00:27:22;17.90;99.90
15036;DHT22;7615;48.574;13.474;2023-07-31T00:29:49;18.00;99.90
15036;DHT22;7615;48.574;13.474;2023-07-31T00:32:16;17.70;99.90
15036;DHT22;7615;48.574;13.474;2023-07-31T00:34:43;17.70;99.90
15036;DHT22;7615;48.574;13.474;2023-07-31T00:37:11;17.70;99.90
15036;DHT22;7615;48.574;13.474;2023-07-31T00:39:38;17.70;99.90
15036;DHT22;7615;48.574;13.474;2023-07-31T00:42:05;17.80;99.90
15036;DHT22;7615;48.574;13.474;2023-07-31T00:44:33;17.80;99.90
15036;DHT22;7615;48.574;13.474;2023-07-31T00:47:00;17.50;99.90
15036;DHT22;7615;48.574;13.474;2023-07-31T00:49:27;17.40;99.90
15036;DHT22;7615;48.574;13.474;2023-07-31T00:51:54;17.50;99.90
15036;DHT22;7615;48.574;13.474;2023-07-31T00:54:24;17.60;99.90
15036;DHT22;7615;48.574;13.474;2023-07-31T00:56:53;17.60;99.90
15036;DHT22;7615;48.574;13.474;2023-07-31T00:59:21;17.60;99.90
15036;DHT22;7615;48.574;13.474;2023-07-31T01:01:47;17.50;99.90
15036;DHT22;7615;48.574;13.474;2023-07-31T01:04:15;17.50;99.90
15036;DHT22;7615;48.574;13.474;2023-07-31T01:06:48;17.50;99.90
15036;DHT22;7615;48.574;13.474;2023-07-31T01:09:25;17.30;99.90
15036;DHT22;7615;48.574;13.474;2023-07-31T01:11:57;17.30;99.90
15036;DHT22;7615;48.574;13.474;2023-07-31T01:14:26;17.20;99.90
15036;DHT22;7615;48.574;13.474;2023-07-31T01:16:54;17.10;99.90
15036;DHT22;7615;48.574;13.474;2023-07-31T01:19:22;17.00;99.90
15036;DHT22;7615;48.574;13.474;2023-07-31T01:22:01;16.90;99.90
15036;DHT22;7615;48.574;13.474;2023-07-31T01:24:37;16.90;99.90
15036;DHT22;7615;48.574;13.474;2023-07-31T01:27:13;16.80;99.90
15036;DHT22;7615;48.574;13.474;2023-07-31T01:29:51;16.80;99.90
15036;DHT22;7615;48.574;13.474;2023-07-31T01:32:20;16.80;99.90
15036;DHT22;7615;48.574;13.474;2023-07-31T01:34:48;16.80;99.90
15036;DHT22;7615;48.574;13.474;2023-07-31T01:37:16;16.70;99.90
15036;DHT22;7615;48.574;13.474;2023-07-31T01:39:43;16.80;99.90
15036;DHT22;7615;48.574;13.474;2023-07-31T01:42:11;16.60;99.90
15036;DHT22;7615;48.574;13.474;2023-07-31T01:44:38;16.60;99.90
15036;DHT22;7615;48.574;13.474;2023-07-31T01:47:05;16.60;99.90
15036;DHT22;7615;48.574;13.474;2023-07-31T01:49:32;16.50;99.90
15036;DHT22;7615;48.574;13.474;2023-07-31T01:51:59;16.40;99.90
15036;DHT22;7615;48.574;13.474;2023-07-31T01:54:26;16.30;99.90
15036;DHT22;7615;48.574;13.474;2023-07-31T01:56:52;16.20;99.90
15036;DHT22;7615;48.574;13.474;2023-07-31T01:59:20;16.00;99.90
15036;DHT22;7615;48.574;13.474;2023-07-31T02:01:47;16.00;99.90
15036;DHT22;7615;48.574;13.474;2023-07-31T02:04:14;15.80;99.90
15036;DHT22;7615;48.574;13.474;2023-07-31T02:06:41;15.70;99.90
15036;DHT22;7615;48.574;13.474;2023-07-31T02:09:08;15.80;99.90
15036;DHT22;7615;48.574;13.474;2023-07-31T02:11:35;15.90;99.90
15036;DHT22;7615;48.574;13.474;2023-07-31T02:14:01;16.00;99.90
15036;DHT22;7615;48.574;13.474;2023-07-31T02:16:30;16.00;99.90
15036;DHT22;7615;48.574;13.474;2023-07-31T02:18:56;15.90;99.90
15036;DHT22;7615;48.574;13.474;2023-07-31T02:21:23;16.00;99.90
15036;DHT22;7615;48.574;13.474;2023-07-31T02:23:50;15.90;99.90
15036;DHT22;7615;48.574;13.474;2023-07-31T02:26:17;15.80;99.90
15036;DHT22;7615;48.574;13.474;2023-07-31T02:28:43;15.80;99.90
15036;DHT22;7615;48.574;13.474;2023-07-31T02:31:10;15.60;99.90
15036;DHT22;7615;48.574;13.474;2023-07-31T02:33:38;15.60;99.90
15036;DHT22;7615;48.574;13.474;2023-07-31T02:36:05;15.80;99.90
15036;DHT22;7615;48.574;13.474;2023-07-31T02:38:32;15.80;99.90
15036;DHT22;7615;48.574;13.474;2023-07-31T02:41:00;15.80;99.90
15036;DHT22;7615;48.574;13.474;2023-07-31T02:43:27;15.70;99.90
15036;DHT22;7615;48.574;13.474;2023-07-31T02:45:54;15.70;99.90
15036;DHT22;7615;48.574;13.474;2023-07-31T02:48:20;15.70;99.90
15036;DHT22;7615;48.574;13.474;2023-07-31T02:50:49;15.70;99.90
15036;DHT22;7615;48.574;13.474;2023-07-31T02:53:15;15.60;99.90
15036;DHT22;7615;48.574;13.474;2023-07-31T02:55:42;15.60;99.90
15036;DHT22;7615;48.574;13.474;2023-07-31T02:58:09;15.50;99.90
15036;DHT22;7615;48.574;13.474;2023-07-31T03:00:36;15.50;99.90
15036;DHT22;7615;48.574;13.474;2023-07-31T03:03:08;15.50;99.90
15036;DHT22;7615;48.574;13.474;2023-07-31T03:05:35;15.70;99.90
15036;DHT22;7615;48.574;13.474;2023-07-31T03:08:03;15.60;99.90
15036;DHT22;7615;48.574;13.474;2023-07-31T03:10:30;15.50;99.90
15036;DHT22;7615;48.574;13.474;2023-07-31T03:12:57;15.80;99.90
15036;DHT22;7615;48.574;13.474;2023-07-31T03:15:23;15.60;99.90
15036;DHT22;7615;48.574;13.474;2023-07-31T03:17:50;16.10;99.90
15036;DHT22;7615;48.574;13.474;2023-07-31T03:20:17;15.60;99.90
15036;DHT22;7615;48.574;13.474;2023-07-31T03:22:44;15.60;99.90
15036;DHT22;7615;48.574;13.474;2023-07-31T03:25:12;15.60;99.90
15036;DHT22;7615;48.574;13.474;2023-07-31T03:27:39;15.60;99.90
15036;DHT22;7615;48.574;13.474;2023-07-31T03:30:07;15.50;99.90
15036;DHT22;7615;48.574;13.474;2023-07-31T03:32:34;15.50;99.90
15036;DHT22;7615;48.574;13.474;2023-07-31T03:35:01;15.30;99.90
15036;DHT22;7615;48.574;13.474;2023-07-31T03:37:28;15.40;99.90
15036;DHT22;7615;48.574;13.474;2023-07-31T03:39:54;15.60;99.90
15036;DHT22;7615;48.574;13.474;2023-07-31T03:42:22;15.60;99.90
15036;DHT22;7615;48.574;13.474;2023-07-31T03:44:49;15.50;99.90
15036;DHT22;7615;48.574;13.474;2023-07-31T03:47:16;15.40;99.90
15036;DHT22;7615;48.574;13.474;2023-07-31T03:49:43;15.20;99.90
15036;DHT22;7615;48.574;13.474;2023-07-31T03:52:10;15.20;99.90
15036;DHT22;7615;48.574;13.474;2023-07-31T03:54:36;15.40;99.90
15036;DHT22;7615;48.574;13.474;2023-07-31T03:57:04;15.50;99.90
15036;DHT22;7615;48.574;13.474;2023-07-31T03:59:32;15.30;99.90
15036;DHT22;7615;48.574;13.474;2023-07-31T04:01:59;15.30;99.90
15036;DHT22;7615;48.574;13.474;2023-07-31T04:04:26;15.20;99.90
15036;DHT22;7615;48.574;13.474;2023-07-31T04:06:52;15.60;99.90
15036;DHT22;7615;48.574;13.474;2023-07-31T04:09:19;15.00;99.90
15036;DHT22;7615;48.574;13.474;2023-07-31T04:11:46;14.90;99.90
15036;DHT22;7615;48.574;13.474;2023-07-31T04:14:13;14.90;99.90
15036;DHT22;7615;48.574;13.474;2023-07-31T04:16:41;14.80;99.90
15036;DHT22;7615;48.574;13.474;2023-07-31T04:19:08;14.80;99.90
15036;DHT22;7615;48.574;13.474;2023-07-31T04:21:36;15.00;99.90
15036;DHT22;7615;48.574;13.474;2023-07-31T04:24:03;14.90;99.90
15036;DHT22;7615;48.574;13.474;2023-07-31T04:26:30;15.00;99.90
15036;DHT22;7615;48.574;13.474;2023-07-31T04:28:57;15.10;99.90
15036;DHT22;7615;48.574;13.474;2023-07-31T04:31:23;15.10;99.90
15036;DHT22;7615;48.574;13.474;2023-07-31T04:33:51;15.10;99.90
15036;DHT22;7615;48.574;13.474;2023-07-31T04:36:18;15.10;99.90
15036;DHT22;7615;48.574;13.474;2023-07-31T04:38:45;15.30;99.90
15036;DHT22;7615;48.574;13.474;2023-07-31T04:41:12;15.70;99.90
15036;DHT22;7615;48.574;13.474;2023-07-31T04:43:39;15.30;99.90
15036;DHT22;7615;48.574;13.474;2023-07-31T04:46:06;15.30;99.90
15036;DHT22;7615;48.574;13.474;2023-07-31T04:48:33;15.20;99.90
15036;DHT22;7615;48.574;13.474;2023-07-31T04:51:01;15.20;99.90
15036;DHT22;7615;48.574;13.474;2023-07-31T04:53:28;15.20;99.90
15036;DHT22;7615;48.574;13.474;2023-07-31T04:55:54;15.10;99.90
15036;DHT22;7615;48.574;13.474;2023-07-31T04:58:21;15.70;99.90
15036;DHT22;7615;48.574;13.474;2023-07-31T05:00:48;15.50;99.90
15036;DHT22;7615;48.574;13.474;2023-07-31T05:03:15;15.40;99.90
15036;DHT22;7615;48.574;13.474;2023-07-31T05:05:42;15.40;99.90
15036;DHT22;7615;48.574;13.474;2023-07-31T05:08:10;15.40;99.90
15036;DHT22;7615;48.574;13.474;2023-07-31T05:10:37;15.40;99.90
15036;DHT22;7615;48.574;13.474;2023-07-31T05:13:04;15.20;99.90
15036;DHT22;7615;48.574;13.474;2023-07-31T05:15:31;15.40;99.90
15036;DHT22;7615;48.574;13.474;2023-07-31T05:17:57;15.50;99.90
15036;DHT22;7615;48.574;13.474;2023-07-31T05:20:24;15.40;99.90
15036;DHT22;7615;48.574;13.474;2023-07-31T05:22:51;15.70;99.90
15036;DHT22;7615;48.574;13.474;2023-07-31T05:25:20;15.60;99.90
15036;DHT22;7615;48.574;13.474;2023-07-31T05:27:46;15.60;99.90
15036;DHT22;7615;48.574;13.474;2023-07-31T05:30:13;15.70;99.90
15036;DHT22;7615;48.574;13.474;2023-07-31T05:32:40;15.70;99.90
15036;DHT22;7615;48.574;13.474;2023-07-31T05:35:14;15.70;99.90
15036;DHT22;7615;48.574;13.474;2023-07-31T05:37:41;15.80;99.90
15036;DHT22;7615;48.574;13.474;2023-07-31T05:40:08;15.80;99.90
15036;DHT22;7615;48.574;13.474;2023-07-31T05:42:36;15.90;99.90
15036;DHT22;7615;48.574;13.474;2023-07-31T05:45:05;15.90;99.90
15036;DHT22;7615;48.574;13.474;2023-07-31T05:47:32;16.00;99.90
15036;DHT22;7615;48.574;13.474;2023-07-31T05:50:04;16.00;99.90
15036;DHT22;7615;48.574;13.474;2023-07-31T05:52:31;16.10;99.90
15036;DHT22;7615;48.574;13.474;2023-07-31T05:54:57;16.20;99.90
15036;DHT22;7615;48.574;13.474;2023-07-31T05:57:24;16.30;99.90
15036;DHT22;7615;48.574;13.474;2023-07-31T05:59:52;16.20;99.90
15036;DHT22;7615;48.574;13.474;2023-07-31T06:02:19;16.20;99.90
15036;DHT22;7615;48.574;13.474;2023-07-31T06:04:49;16.30;99.90
15036;DHT22;7615;48.574;13.474;2023-07-31T06:07:17;16.60;99.90
15036;DHT22;7615;48.574;13.474;2023-07-31T06:09:45;16.40;99.90
15036;DHT22;7615;48.574;13.474;2023-07-31T06:12:11;16.40;99.90
15036;DHT22;7615;48.574;13.474;2023-07-31T06:14:39;16.50;99.90
15036;DHT22;7615;48.574;13.474;2023-07-31T06:17:07;16.60;99.90
15036;DHT22;7615;48.574;13.474;2023-07-31T06:19:34;16.60;99.90
15036;DHT22;7615;48.574;13.474;2023-07-31T06:22:01;16.70;99.90
15036;DHT22;7615;48.574;13.474;2023-07-31T06:24:29;16.80;99.90
15036;DHT22;7615;48.574;13.474;2023-07-31T06:27:13;16.90;99.90
15036;DHT22;7615;48.574;13.474;2023-07-31T06:29:40;17.00;99.90
15036;DHT22;7615;48.574;13.474;2023-07-31T06:32:12;17.10;99.90
15036;DHT22;7615;48.574;13.474;2023-07-31T06:34:39;17.20;99.90
15036;DHT22;7615;48.574;13.474;2023-07-31T06:37:06;17.30;99.90
15036;DHT22;7615;48.574;13.474;2023-07-31T06:39:33;17.50;99.90
15036;DHT22;7615;48.574;13.474;2023-07-31T06:42:00;17.70;99.90
15036;DHT22;7615;48.574;13.474;2023-07-31T06:44:27;17.90;99.90
15036;DHT22;7615;48.574;13.474;2023-07-31T06:46:54;18.00;99.90
15036;DHT22;7615;48.574;13.474;2023-07-31T06:49:22;18.10;99.90
15036;DHT22;7615;48.574;13.474;2023-07-31T06:51:49;18.40;99.90
15036;DHT22;7615;48.574;13.474;2023-07-31T06:54:15;18.60;99.90
15036;DHT22;7615;48.574;13.474;2023-07-31T06:56:42;18.80;99.90
15036;DHT22;7615;48.574;13.474;2023-07-31T06:59:09;18.90;99.90
15036;DHT22;7615;48.574;13.474;2023-07-31T07:01:36;18.90;99.90
15036;DHT22;7615;48.574;13.474;2023-07-31T07:04:03;19.00;99.90
15036;DHT22;7615;48.574;13.474;2023-07-31T07:06:31;18.90;99.90
15036;DHT22;7615;48.574;13.474;2023-07-31T07:09:05;19.00;99.90
15036;DHT22;7615;48.574;13.474;2023-07-31T07:11:33;19.00;99.90
15036;DHT22;7615;48.574;13.474;2023-07-31T07:14:00;18.90;99.90
15036;DHT22;7615;48.574;13.474;2023-07-31T07:16:28;19.10;99.90
15036;DHT22;7615;48.574;13.474;2023-07-31T07:18:56;19.30;99.90
15036;DHT22;7615;48.574;13.474;2023-07-31T07:21:23;19.50;99.90
15036;DHT22;7615;48.574;13.474;2023-07-31T07:23:51;19.70;99.90
15036;DHT22;7615;48.574;13.474;2023-07-31T07:26:18;19.70;99.90
15036;DHT22;7615;48.574;13.474;2023-07-31T07:28:45;19.80;99.90
15036;DHT22;7615;48.574;13.474;2023-07-31T07:31:12;19.90;99.90
15036;DHT22;7615;48.574;13.474;2023-07-31T07:33:38;20.10;99.90
15036;DHT22;7615;48.574;13.474;2023-07-31T07:36:05;20.20;99.90
15036;DHT22;7615;48.574;13.474;2023-07-31T07:38:35;20.20;99.90
15036;DHT22;7615;48.574;13.474;2023-07-31T07:41:04;20.30;99.90
15036;DHT22;7615;48.574;13.474;2023-07-31T07:43:30;20.40;99.90
15036;DHT22;7615;48.574;13.474;2023-07-31T07:45:57;20.50;99.90
15036;DHT22;7615;48.574;13.474;2023-07-31T07:48:26;20.50;99.90
15036;DHT22;7615;48.574;13.474;2023-07-31T07:50:53;20.50;99.90
15036;DHT22;7615;48.574;13.474;2023-07-31T07:53:20;20.70;99.90
15036;DHT22;7615;48.574;13.474;2023-07-31T07:55:46;20.80;99.90
15036;DHT22;7615;48.574;13.474;2023-07-31T07:58:16;21.00;99.90
15036;DHT22;7615;48.574;13.474;2023-07-31T08:00:48;21.20;99.90
15036;DHT22;7615;48.574;13.474;2023-07-31T08:03:16;21.00;99.90
15036;DHT22;7615;48.574;13.474;2023-07-31T08:05:44;21.20;99.90
15036;DHT22;7615;48.574;13.474;2023-07-31T08:08:14;21.40;99.90
15036;DHT22;7615;48.574;13.474;2023-07-31T08:10:41;21.50;99.90
15036;DHT22;7615;48.574;13.474;2023-07-31T08:13:09;21.60;99.90
15036;DHT22;7615;48.574;13.474;2023-07-31T08:15:37;21.80;99.90
15036;DHT22;7615;48.574;13.474;2023-07-31T08:18:04;21.60;99.90
15036;DHT22;7615;48.574;13.474;2023-07-31T08:20:31;21.70;99.90
15036;DHT22;7615;48.574;13.474;2023-07-31T08:22:58;21.70;99.90
15036;DHT22;7615;48.574;13.474;2023-07-31T08:25:25;21.60;99.90
15036;DHT22;7615;48.574;13.474;2023-07-31T08:27:52;21.70;99.90
15036;DHT22;7615;48.574;13.474;2023-07-31T08:30:19;21.70;99.90
15036;DHT22;7615;48.574;13.474;2023-07-31T08:35:15;22.20;99.90
15036;DHT22;7615;48.574;13.474;2023-07-31T08:37:41;22.10;99.90
15036;DHT22;7615;48.574;13.474;2023-07-31T08:40:09;22.20;99.90
15036;DHT22;7615;48.574;13.474;2023-07-31T08:42:43;22.40;99.90
15036;DHT22;7615;48.574;13.474;2023-07-31T08:45:13;22.40;99.90
15036;DHT22;7615;48.574;13.474;2023-07-31T08:47:44;22.30;99.90
15036;DHT22;7615;48.574;13.474;2023-07-31T08:50:14;22.40;99.90
15036;DHT22;7615;48.574;13.474;2023-07-31T08:52:41;22.50;99.90
15036;DHT22;7615;48.574;13.474;2023-07-31T08:55:10;22.20;99.90
15036;DHT22;7615;48.574;13.474;2023-07-31T08:57:37;21.90;99.90
15036;DHT22;7615;48.574;13.474;2023-07-31T09:00:06;21.90;99.90
15036;DHT22;7615;48.574;13.474;2023-07-31T09:02:37;22.00;99.90
15036;DHT22;7615;48.574;13.474;2023-07-31T09:05:06;22.10;99.90
15036;DHT22;7615;48.574;13.474;2023-07-31T09:07:35;22.30;99.90
15036;DHT22;7615;48.574;13.474;2023-07-31T09:10:03;22.70;99.90
15036;DHT22;7615;48.574;13.474;2023-07-31T09:12:30;22.60;99.90
15036;DHT22;7615;48.574;13.474;2023-07-31T09:14:57;22.70;99.90
15036;DHT22;7615;48.574;13.474;2023-07-31T09:17:30;22.80;99.90
15036;DHT22;7615;48.574;13.474;2023-07-31T09:19:58;22.80;99.90
15036;DHT22;7615;48.574;13.474;2023-07-31T09:22:42;22.70;99.90
15036;DHT22;7615;48.574;13.474;2023-07-31T09:25:16;22.60;99.90
15036;DHT22;7615;48.574;13.474;2023-07-31T09:27:47;22.60;99.90
15036;DHT22;7615;48.574;13.474;2023-07-31T09:30:14;22.90;99.90
15036;DHT22;7615;48.574;13.474;2023-07-31T09:32:42;22.80;99.90
15036;DHT22;7615;48.574;13.474;2023-07-31T09:35:27;22.90;99.90
15036;DHT22;7615;48.574;13.474;2023-07-31T10:45:04;23.00;99.90
15036;DHT22;7615;48.574;13.474;2023-07-31T10:47:31;22.90;99.90
15036;DHT22;7615;48.574;13.474;2023-07-31T10:50:16;23.30;99.90
15036;DHT22;7615;48.574;13.474;2023-07-31T10:52:46;23.40;99.90
15036;DHT22;7615;48.574;13.474;2023-07-31T10:55:24;23.40;99.90
15036;DHT22;7615;48.574;13.474;2023-07-31T10:57:52;23.20;99.90
15036;DHT22;7615;48.574;13.474;2023-07-31T11:00:24;23.20;99.90
15036;DHT22;7615;48.574;13.474;2023-07-31T11:02:57;23.30;99.90
15036;DHT22;7615;48.574;13.474;2023-07-31T11:05:52;23.40;99.90
15036;DHT22;7615;48.574;13.474;2023-07-31T11:08:26;23.40;99.90
15036;DHT22;7615;48.574;13.474;2023-07-31T11:11:08;23.30;99.90
15036;DHT22;7615;48.574;13.474;2023-07-31T11:13:41;23.40;99.90
15036;DHT22;7615;48.574;13.474;2023-07-31T11:16:10;23.70;99.90
15036;DHT22;7615;48.574;13.474;2023-07-31T13:22:42;26.00;99.90
15036;DHT22;7615;48.574;13.474;2023-07-31T13:25:09;26.40;99.90
15036;DHT22;7615;48.574;13.474;2023-07-31T13:27:36;26.30;99.90
15036;DHT22;7615;48.574;13.474;2023-07-31T13:30:05;26.20;99.90
15036;DHT22;7615;48.574;13.474;2023-07-31T13:32:32;26.00;99.90
15036;DHT22;7615;48.574;13.474;2023-07-31T13:34:59;25.70;99.90
15036;DHT22;7615;48.574;13.474;2023-07-31T13:37:26;25.80;99.90
15036;DHT22;7615;48.574;13.474;2023-07-31T13:39:53;26.10;99.90
15036;DHT22;7615;48.574;13.474;2023-07-31T13:42:21;26.20;99.90
15036;DHT22;7615;48.574;13.474;2023-07-31T13:44:48;26.10;99.90
15036;DHT22;7615;48.574;13.474;2023-07-31T13:47:16;26.10;99.90
15036;DHT22;7615;48.574;13.474;2023-07-31T13:49:43;26.10;99.90
15036;DHT22;7615;48.574;13.474;2023-07-31T18:15:27;24.30;99.90
15036;DHT22;7615;48.574;13.474;2023-07-31T18:17:54;22.90;99.90
15036;DHT22;7615;48.574;13.474;2023-07-31T18:20:21;22.60;99.90
15036;DHT22;7615;48.574;13.474;2023-07-31T18:22:49;22.50;99.90
15036;DHT22;7615;48.574;13.474;2023-07-31T18:25:16;22.40;99.90
15036;DHT22;7615;48.574;13.474;2023-07-31T18:27:43;22.40;99.90
15036;DHT22;7615;48.574;13.474;2023-07-31T18:30:12;22.30;99.90
15036;DHT22;7615;48.574;13.474;2023-07-31T18:32:39;22.10;99.90
15036;DHT22;7615;48.574;13.474;2023-07-31T18:35:06;22.10;99.90
15036;DHT22;7615;48.574;13.474;2023-07-31T18:37:33;22.10;99.90
15036;DHT22;7615;48.574;13.474;2023-07-31T18:40:02;21.90;99.90
15036;DHT22;7615;48.574;13.474;2023-07-31T18:42:30;22.00;99.90
15036;DHT22;7615;48.574;13.474;2023-07-31T18:44:56;21.90;99.90
15036;DHT22;7615;48.574;13.474;2023-07-31T18:47:23;21.80;99.90
15036;DHT22;7615;48.574;13.474;2023-07-31T18:49:50;21.70;99.90
15036;DHT22;7615;48.574;13.474;2023-07-31T18:52:17;21.80;99.90
15036;DHT22;7615;48.574;13.474;2023-07-31T18:54:44;21.70;99.90
15036;DHT22;7615;48.574;13.474;2023-07-31T19:02:06;21.50;99.90
15036;DHT22;7615;48.574;13.474;2023-07-31T19:04:33;21.40;99.90
15036;DHT22;7615;48.574;13.474;2023-07-31T19:07:00;21.30;99.90
15036;DHT22;7615;48.574;13.474;2023-07-31T19:09:28;21.30;99.90
15036;DHT22;7615;48.574;13.474;2023-07-31T21:00:16;19.20;99.90
15036;DHT22;7615;48.574;13.474;2023-07-31T21:02:44;19.10;99.90
15036;DHT22;7615;48.574;13.474;2023-07-31T21:05:11;19.10;99.90
15036;DHT22;7615;48.574;13.474;2023-07-31T21:07:38;19.00;99.90
15036;DHT22;7615;48.574;13.474;2023-07-31T21:10:08;18.90;99.90
15036;DHT22;7615;48.574;13.474;2023-07-31T21:12:37;18.90;99.90
15036;DHT22;7615;48.574;13.474;2023-07-31T21:15:07;18.90;99.90
15036;DHT22;7615;48.574;13.474;2023-07-31T21:17:34;18.90;99.90
15036;DHT22;7615;48.574;13.474;2023-07-31T21:20:02;18.90;99.90
15036;DHT22;7615;48.574;13.474;2023-07-31T21:22:31;18.90;99.90
15036;DHT22;7615;48.574;13.474;2023-07-31T21:24:58;18.80;99.90
15036;DHT22;7615;48.574;13.474;2023-07-31T21:27:24;18.90;99.90
15036;DHT22;7615;48.574;13.474;2023-07-31T21:29:51;18.90;99.90
15036;DHT22;7615;48.574;13.474;2023-07-31T21:32:20;18.80;99.90
15036;DHT22;7615;48.574;13.474;2023-07-31T21:34:47;18.80;99.90
15036;DHT22;7615;48.574;13.474;2023-07-31T21:37:14;18.70;99.90
15036;DHT22;7615;48.574;13.474;2023-07-31T21:39:41;18.70;99.90
15036;DHT22;7615;48.574;13.474;2023-07-31T21:42:08;18.70;99.90
15036;DHT22;7615;48.574;13.474;2023-07-31T21:44:35;18.70;99.90
15036;DHT22;7615;48.574;13.474;2023-07-31T21:47:02;18.70;99.90
15036;DHT22;7615;48.574;13.474;2023-07-31T21:49:30;18.70;99.90
15036;DHT22;7615;48.574;13.474;2023-07-31T21:51:57;18.70;99.90
15036;DHT22;7615;48.574;13.474;2023-07-31T21:54:24;18.70;99.90
15036;DHT22;7615;48.574;13.474;2023-07-31T21:56:50;18.70;99.90
15036;DHT22;7615;48.574;13.474;2023-07-31T21:59:17;18.60;99.90
15036;DHT22;7615;48.574;13.474;2023-07-31T22:01:44;18.50;99.90
15036;DHT22;7615;48.574;13.474;2023-07-31T22:16:28;18.30;99.90
15036;DHT22;7615;48.574;13.474;2023-07-31T22:18:55;18.30;99.90
15036;DHT22;7615;48.574;13.474;2023-07-31T22:21:22;18.40;99.90
15036;DHT22;7615;48.574;13.474;2023-07-31T22:23:50;18.30;99.90
15036;DHT22;7615;48.574;13.474;2023-07-31T22:26:17;18.30;99.90
15036;DHT22;7615;48.574;13.474;2023-07-31T22:28:43;18.30;99.90
15036;DHT22;7615;48.574;13.474;2023-07-31T22:31:10;18.40;99.90
15036;DHT22;7615;48.574;13.474;2023-07-31T22:33:37;18.30;99.90
15036;DHT22;7615;48.574;13.474;2023-07-31T22:36:04;18.30;99.90
15036;DHT22;7615;48.574;13.474;2023-07-31T22:38:31;18.40;99.90
15036;DHT22;7615;48.574;13.474;2023-07-31T22:41:01;18.40;99.90
15036;DHT22;7615;48.574;13.474;2023-07-31T22:43:28;18.40;99.90
15036;DHT22;7615;48.574;13.474;2023-07-31T22:45:55;18.40;99.90
15036;DHT22;7615;48.574;13.474;2023-07-31T22:48:22;18.40;99.90
15036;DHT22;7615;48.574;13.474;2023-07-31T22:50:49;18.30;99.90
15036;DHT22;7615;48.574;13.474;2023-07-31T22:53:15;18.30;99.90
15036;DHT22;7615;48.574;13.474;2023-07-31T22:55:42;18.30;99.90
15036;DHT22;7615;48.574;13.474;2023-07-31T22:58:10;18.30;99.90
15036;DHT22;7615;48.574;13.474;2023-07-31T23:00:37;18.20;99.90
15036;DHT22;7615;48.574;13.474;2023-07-31T23:03:04;18.20;99.90
15036;DHT22;7615;48.574;13.474;2023-07-31T23:05:31;18.20;99.90
15036;DHT22;7615;48.574;13.474;2023-07-31T23:07:58;18.10;99.90
15036;DHT22;7615;48.574;13.474;2023-07-31T23:10:26;18.20;99.90
15036;DHT22;7615;48.574;13.474;2023-07-31T23:12:53;18.10;99.90
15036;DHT22;7615;48.574;13.474;2023-07-31T23:15:21;18.20;99.90
15036;DHT22;7615;48.574;13.474;2023-07-31T23:17:48;18.10;99.90
15036;DHT22;7615;48.574;13.474;2023-07-31T23:20:15;18.00;99.90
15036;DHT22;7615;48.574;13.474;2023-07-31T23:25:09;18.00;99.90
